YBRK

Details ICAO YBRK (ROK)
Name Rockhampton
Region Australia
Timezone Australia/Brisbane (UTC+10.0)
Plans Departing 471
Arriving 607
Stats Elevation 34 ft / 10 m (AMSL)
Location -23.378800° 150.473000°
Runways 2
Magnetic Variation 9.191° E
Sunrise 2019-12-08 19:05:46 UTC / 2019-12-09 05:05:46 Local
Sunset 2019-12-09 08:37:17 UTC / 2019-12-09 18:37:17 Local
Advertisement - Login to hide

Runways

ID Width Length Bearing (true/mag) Surface Threshold Overrun Markings Lighting
04 102 ft / 31 m 5,395 ft / 1,644 m 52.34° / 43.15° ASPHALT 0 ft / 0 m 20 ft / 6 m APP EDGE THRESHOLD
15 148 ft / 45 m 8,649 ft / 2,636 m 157.80° / 148.61° ASPHALT 0 ft / 0 m 0 ft / 0 m APP EDGE THRESHOLD
22 102 ft / 31 m 5,395 ft / 1,644 m 232.34° / 223.14° ASPHALT 0 ft / 0 m 0 ft / 0 m APP EDGE THRESHOLD
33 148 ft / 45 m 8,649 ft / 2,636 m 337.80° / 328.61° ASPHALT 0 ft / 0 m 0 ft / 0 m APP EDGE THRESHOLD

Map

Weather


0- 5 10 15 20 25 30 35+ Temperature / °C

Clouds and Precipitation
Forecast for 2019-12-08 18:00 UTC. Updated 3 hours ago

Ground ~20,000 ft ~40,000 ft Winds

METAR

YBRK 081800Z AUTO 12003KT 9999 // NCD 24/19 Q1016

TAF

TAF YBRK 081717Z 0818/0918 08006KT 9999 SCT020 FM082300 08014KT CAVOK FM090900 10008KT 9999 FEW025

Frequencies

Recorded 128.50 MHz ATIS
Unicom 118.10 MHz CTAF
Ground 121.80 MHz ROCKY GND
Tower 118.10 MHz
Warning: Do not use this data for real-world aviation or navigation. No guarantee of current accuracy is given.